sensor_id;sensor_type;location;lat;lon;timestamp;P1;durP1;ratioP1;P2;durP2;ratioP2
19191;SDS011;9728;48.194;16.346;2023-03-14T00:01:59;2.63;;;1.63;;
19191;SDS011;9728;48.194;16.346;2023-03-14T00:07:02;2.28;;;1.50;;
19191;SDS011;9728;48.194;16.346;2023-03-14T00:12:06;2.95;;;1.80;;
19191;SDS011;9728;48.194;16.346;2023-03-14T00:17:11;3.78;;;1.75;;
19191;SDS011;9728;48.194;16.346;2023-03-14T00:22:15;3.38;;;1.77;;
19191;SDS011;9728;48.194;16.346;2023-03-14T00:27:18;2.30;;;1.65;;
19191;SDS011;9728;48.194;16.346;2023-03-14T00:32:23;2.72;;;1.48;;
19191;SDS011;9728;48.194;16.346;2023-03-14T00:37:27;2.17;;;1.58;;
19191;SDS011;9728;48.194;16.346;2023-03-14T00:42:30;3.33;;;1.90;;
19191;SDS011;9728;48.194;16.346;2023-03-14T00:47:35;2.15;;;1.73;;
19191;SDS011;9728;48.194;16.346;2023-03-14T00:52:38;1.90;;;1.58;;
19191;SDS011;9728;48.194;16.346;2023-03-14T00:57:43;2.25;;;1.58;;
19191;SDS011;9728;48.194;16.346;2023-03-14T01:02:48;2.40;;;1.48;;
19191;SDS011;9728;48.194;16.346;2023-03-14T01:07:51;2.45;;;1.65;;
19191;SDS011;9728;48.194;16.346;2023-03-14T01:12:54;2.40;;;1.63;;
19191;SDS011;9728;48.194;16.346;2023-03-14T01:17:59;2.60;;;1.40;;
19191;SDS011;9728;48.194;16.346;2023-03-14T01:23:03;1.73;;;1.30;;
19191;SDS011;9728;48.194;16.346;2023-03-14T01:28:06;2.80;;;1.50;;
19191;SDS011;9728;48.194;16.346;2023-03-14T01:33:11;3.30;;;1.58;;
19191;SDS011;9728;48.194;16.346;2023-03-14T01:38:18;2.58;;;1.60;;
19191;SDS011;9728;48.194;16.346;2023-03-14T01:43:21;3.35;;;1.80;;
19191;SDS011;9728;48.194;16.346;2023-03-14T01:48:28;1.90;;;1.40;;
19191;SDS011;9728;48.194;16.346;2023-03-14T01:53:37;2.83;;;1.50;;
19191;SDS011;9728;48.194;16.346;2023-03-14T01:58:45;3.22;;;1.75;;
19191;SDS011;9728;48.194;16.346;2023-03-14T02:03:54;2.22;;;1.20;;
19191;SDS011;9728;48.194;16.346;2023-03-14T02:09:00;3.25;;;1.63;;
19191;SDS011;9728;48.194;16.346;2023-03-14T02:14:08;3.28;;;1.60;;
19191;SDS011;9728;48.194;16.346;2023-03-14T02:19:50;3.17;;;1.70;;
19191;SDS011;9728;48.194;16.346;2023-03-14T02:25:09;2.30;;;1.83;;
19191;SDS011;9728;48.194;16.346;2023-03-14T02:30:20;2.92;;;2.50;;
19191;SDS011;9728;48.194;16.346;2023-03-14T02:35:26;2.42;;;1.85;;
19191;SDS011;9728;48.194;16.346;2023-03-14T02:40:32;2.78;;;1.60;;
19191;SDS011;9728;48.194;16.346;2023-03-14T02:45:38;2.88;;;2.13;;
19191;SDS011;9728;48.194;16.346;2023-03-14T02:50:45;3.45;;;1.90;;
19191;SDS011;9728;48.194;16.346;2023-03-14T02:55:51;2.35;;;1.80;;
19191;SDS011;9728;48.194;16.346;2023-03-14T03:00:58;2.83;;;1.95;;
19191;SDS011;9728;48.194;16.346;2023-03-14T03:06:01;3.60;;;1.90;;
19191;SDS011;9728;48.194;16.346;2023-03-14T03:11:06;2.15;;;1.40;;
19191;SDS011;9728;48.194;16.346;2023-03-14T03:16:11;2.72;;;2.03;;
19191;SDS011;9728;48.194;16.346;2023-03-14T03:21:15;2.53;;;1.40;;
19191;SDS011;9728;48.194;16.346;2023-03-14T03:26:19;3.05;;;2.00;;
19191;SDS011;9728;48.194;16.346;2023-03-14T03:31:24;3.05;;;1.83;;
19191;SDS011;9728;48.194;16.346;2023-03-14T03:36:27;4.68;;;1.67;;
19191;SDS011;9728;48.194;16.346;2023-03-14T03:41:33;2.03;;;1.67;;
19191;SDS011;9728;48.194;16.346;2023-03-14T03:46:38;2.35;;;1.67;;
19191;SDS011;9728;48.194;16.346;2023-03-14T03:51:42;2.65;;;1.60;;
19191;SDS011;9728;48.194;16.346;2023-03-14T03:56:46;3.17;;;1.75;;
19191;SDS011;9728;48.194;16.346;2023-03-14T04:01:51;7.68;;;2.40;;
19191;SDS011;9728;48.194;16.346;2023-03-14T04:06:55;4.25;;;1.95;;
19191;SDS011;9728;48.194;16.346;2023-03-14T04:11:58;4.68;;;2.33;;
19191;SDS011;9728;48.194;16.346;2023-03-14T04:17:15;3.33;;;2.03;;
19191;SDS011;9728;48.194;16.346;2023-03-14T04:22:19;3.63;;;2.10;;
19191;SDS011;9728;48.194;16.346;2023-03-14T04:27:24;3.20;;;2.38;;
19191;SDS011;9728;48.194;16.346;2023-03-14T04:32:31;2.53;;;1.77;;
19191;SDS011;9728;48.194;16.346;2023-03-14T04:37:35;2.95;;;2.05;;
19191;SDS011;9728;48.194;16.346;2023-03-14T04:42:40;3.33;;;1.95;;
19191;SDS011;9728;48.194;16.346;2023-03-14T04:47:49;2.55;;;1.88;;
19191;SDS011;9728;48.194;16.346;2023-03-14T04:52:54;2.40;;;1.90;;
19191;SDS011;9728;48.194;16.346;2023-03-14T04:57:57;3.33;;;2.03;;
19191;SDS011;9728;48.194;16.346;2023-03-14T05:03:02;3.55;;;2.40;;
19191;SDS011;9728;48.194;16.346;2023-03-14T05:08:19;3.15;;;1.92;;
19191;SDS011;9728;48.194;16.346;2023-03-14T05:13:50;2.00;;;1.77;;
19191;SDS011;9728;48.194;16.346;2023-03-14T05:19:20;2.58;;;1.52;;
19191;SDS011;9728;48.194;16.346;2023-03-14T05:24:42;2.33;;;1.75;;
19191;SDS011;9728;48.194;16.346;2023-03-14T05:30:07;3.15;;;1.90;;
19191;SDS011;9728;48.194;16.346;2023-03-14T05:35:31;2.53;;;1.60;;
19191;SDS011;9728;48.194;16.346;2023-03-14T05:40:54;2.78;;;1.52;;
19191;SDS011;9728;48.194;16.346;2023-03-14T05:46:26;3.05;;;1.55;;
19191;SDS011;9728;48.194;16.346;2023-03-14T05:51:49;1.90;;;1.70;;
19191;SDS011;9728;48.194;16.346;2023-03-14T05:57:12;3.47;;;2.17;;
19191;SDS011;9728;48.194;16.346;2023-03-14T06:02:46;2.75;;;1.67;;
19191;SDS011;9728;48.194;16.346;2023-03-14T06:08:02;3.80;;;1.90;;
19191;SDS011;9728;48.194;16.346;2023-03-14T06:13:06;3.15;;;2.03;;
19191;SDS011;9728;48.194;16.346;2023-03-14T06:18:10;3.47;;;2.33;;
19191;SDS011;9728;48.194;16.346;2023-03-14T06:23:16;2.88;;;2.13;;
19191;SDS011;9728;48.194;16.346;2023-03-14T06:28:20;3.83;;;1.85;;
19191;SDS011;9728;48.194;16.346;2023-03-14T06:33:27;3.80;;;2.00;;
19191;SDS011;9728;48.194;16.346;2023-03-14T06:38:34;5.38;;;2.45;;
19191;SDS011;9728;48.194;16.346;2023-03-14T06:43:38;3.60;;;2.00;;
19191;SDS011;9728;48.194;16.346;2023-03-14T06:48:42;7.15;;;2.53;;
19191;SDS011;9728;48.194;16.346;2023-03-14T06:53:48;3.55;;;2.35;;
19191;SDS011;9728;48.194;16.346;2023-03-14T06:58:55;3.75;;;1.85;;
19191;SDS011;9728;48.194;16.346;2023-03-14T07:04:02;4.00;;;2.38;;
19191;SDS011;9728;48.194;16.346;2023-03-14T07:09:07;4.13;;;1.92;;
19191;SDS011;9728;48.194;16.346;2023-03-14T07:14:15;4.70;;;2.40;;
19191;SDS011;9728;48.194;16.346;2023-03-14T07:19:21;4.45;;;2.33;;
19191;SDS011;9728;48.194;16.346;2023-03-14T07:24:26;3.58;;;2.13;;
19191;SDS011;9728;48.194;16.346;2023-03-14T07:29:29;5.22;;;2.35;;
19191;SDS011;9728;48.194;16.346;2023-03-14T07:34:36;4.07;;;3.08;;
19191;SDS011;9728;48.194;16.346;2023-03-14T07:39:41;2.72;;;2.30;;
19191;SDS011;9728;48.194;16.346;2023-03-14T07:44:53;5.05;;;2.40;;
19191;SDS011;9728;48.194;16.346;2023-03-14T07:49:57;4.03;;;2.40;;
19191;SDS011;9728;48.194;16.346;2023-03-14T07:55:01;3.08;;;1.92;;
19191;SDS011;9728;48.194;16.346;2023-03-14T08:00:06;3.15;;;2.10;;
19191;SDS011;9728;48.194;16.346;2023-03-14T08:05:15;2.55;;;1.50;;
19191;SDS011;9728;48.194;16.346;2023-03-14T08:10:20;1.65;;;1.50;;
19191;SDS011;9728;48.194;16.346;2023-03-14T08:15:24;1.15;;;0.98;;
19191;SDS011;9728;48.194;16.346;2023-03-14T08:20:29;0.90;;;0.70;;
19191;SDS011;9728;48.194;16.346;2023-03-14T08:25:34;1.42;;;0.70;;
19191;SDS011;9728;48.194;16.346;2023-03-14T08:30:37;1.60;;;0.70;;
19191;SDS011;9728;48.194;16.346;2023-03-14T08:35:41;0.85;;;0.50;;
19191;SDS011;9728;48.194;16.346;2023-03-14T08:40:46;0.55;;;0.50;;
19191;SDS011;9728;48.194;16.346;2023-03-14T08:45:50;0.63;;;0.47;;
19191;SDS011;9728;48.194;16.346;2023-03-14T08:50:54;0.45;;;0.45;;
19191;SDS011;9728;48.194;16.346;2023-03-14T08:55:59;0.63;;;0.40;;
19191;SDS011;9728;48.194;16.346;2023-03-14T09:01:03;0.73;;;0.40;;
19191;SDS011;9728;48.194;16.346;2023-03-14T09:06:08;0.90;;;0.50;;
19191;SDS011;9728;48.194;16.346;2023-03-14T09:11:14;0.93;;;0.60;;
19191;SDS011;9728;48.194;16.346;2023-03-14T09:16:17;0.50;;;0.50;;
19191;SDS011;9728;48.194;16.346;2023-03-14T09:21:21;0.90;;;0.60;;
19191;SDS011;9728;48.194;16.346;2023-03-14T09:26:25;1.13;;;0.65;;
19191;SDS011;9728;48.194;16.346;2023-03-14T09:31:29;1.15;;;0.80;;
19191;SDS011;9728;48.194;16.346;2023-03-14T09:36:32;1.40;;;0.80;;
19191;SDS011;9728;48.194;16.346;2023-03-14T09:41:37;1.23;;;1.00;;
19191;SDS011;9728;48.194;16.346;2023-03-14T09:46:44;1.58;;;0.93;;
19191;SDS011;9728;48.194;16.346;2023-03-14T09:51:51;1.70;;;0.95;;
19191;SDS011;9728;48.194;16.346;2023-03-14T09:56:58;4.10;;;1.02;;
19191;SDS011;9728;48.194;16.346;2023-03-14T10:02:02;1.75;;;1.13;;
19191;SDS011;9728;48.194;16.346;2023-03-14T10:07:17;3.25;;;1.27;;
19191;SDS011;9728;48.194;16.346;2023-03-14T10:12:31;3.83;;;1.90;;
19191;SDS011;9728;48.194;16.346;2023-03-14T10:17:39;2.42;;;1.30;;
19191;SDS011;9728;48.194;16.346;2023-03-14T10:22:43;1.02;;;0.93;;
19191;SDS011;9728;48.194;16.346;2023-03-14T10:27:49;0.50;;;0.50;;
19191;SDS011;9728;48.194;16.346;2023-03-14T10:32:53;1.45;;;0.57;;
19191;SDS011;9728;48.194;16.346;2023-03-14T10:37:57;1.48;;;0.52;;
19191;SDS011;9728;48.194;16.346;2023-03-14T10:43:05;1.13;;;0.60;;
19191;SDS011;9728;48.194;16.346;2023-03-14T10:48:20;0.60;;;0.60;;
19191;SDS011;9728;48.194;16.346;2023-03-14T10:53:25;0.40;;;0.40;;
19191;SDS011;9728;48.194;16.346;2023-03-14T10:58:32;0.82;;;0.47;;
19191;SDS011;9728;48.194;16.346;2023-03-14T11:03:44;0.40;;;0.40;;
19191;SDS011;9728;48.194;16.346;2023-03-14T11:08:54;0.47;;;0.45;;
19191;SDS011;9728;48.194;16.346;2023-03-14T11:14:11;1.75;;;0.40;;
19191;SDS011;9728;48.194;16.346;2023-03-14T11:25:13;0.40;;;0.40;;
19191;SDS011;9728;48.194;16.346;2023-03-14T11:30:25;0.30;;;0.30;;
19191;SDS011;9728;48.194;16.346;2023-03-14T11:35:37;0.32;;;0.30;;
19191;SDS011;9728;48.194;16.346;2023-03-14T11:40:46;0.40;;;0.40;;
19191;SDS011;9728;48.194;16.346;2023-03-14T11:45:54;0.40;;;0.30;;
19191;SDS011;9728;48.194;16.346;2023-03-14T11:51:05;0.30;;;0.30;;
19191;SDS011;9728;48.194;16.346;2023-03-14T11:56:16;0.45;;;0.30;;
19191;SDS011;9728;48.194;16.346;2023-03-14T12:01:29;0.40;;;0.25;;
19191;SDS011;9728;48.194;16.346;2023-03-14T12:06:44;0.95;;;0.30;;
19191;SDS011;9728;48.194;16.346;2023-03-14T12:11:51;1.15;;;0.40;;
19191;SDS011;9728;48.194;16.346;2023-03-14T12:17:03;0.55;;;0.40;;
19191;SDS011;9728;48.194;16.346;2023-03-14T12:22:13;0.30;;;0.25;;
19191;SDS011;9728;48.194;16.346;2023-03-14T12:38:52;0.50;;;0.50;;
19191;SDS011;9728;48.194;16.346;2023-03-14T12:49:49;0.40;;;0.40;;
19191;SDS011;9728;48.194;16.346;2023-03-14T12:54:57;0.88;;;0.43;;
19191;SDS011;9728;48.194;16.346;2023-03-14T13:00:16;0.65;;;0.40;;
19191;SDS011;9728;48.194;16.346;2023-03-14T13:05:22;0.45;;;0.45;;
19191;SDS011;9728;48.194;16.346;2023-03-14T13:10:27;0.98;;;0.40;;
19191;SDS011;9728;48.194;16.346;2023-03-14T13:15:40;0.30;;;0.30;;
19191;SDS011;9728;48.194;16.346;2023-03-14T13:20:48;0.88;;;0.55;;
19191;SDS011;9728;48.194;16.346;2023-03-14T13:25:56;0.43;;;0.20;;
19191;SDS011;9728;48.194;16.346;2023-03-14T13:31:01;1.08;;;0.65;;
19191;SDS011;9728;48.194;16.346;2023-03-14T13:36:08;0.52;;;0.40;;
19191;SDS011;9728;48.194;16.346;2023-03-14T13:41:12;0.50;;;0.40;;
19191;SDS011;9728;48.194;16.346;2023-03-14T13:46:16;0.40;;;0.30;;
19191;SDS011;9728;48.194;16.346;2023-03-14T13:51:25;0.57;;;0.45;;
19191;SDS011;9728;48.194;16.346;2023-03-14T13:56:32;0.57;;;0.43;;
19191;SDS011;9728;48.194;16.346;2023-03-14T14:01:37;1.00;;;0.40;;
19191;SDS011;9728;48.194;16.346;2023-03-14T14:06:45;1.05;;;0.60;;
19191;SDS011;9728;48.194;16.346;2023-03-14T14:11:53;0.63;;;0.40;;
19191;SDS011;9728;48.194;16.346;2023-03-14T14:17:16;0.55;;;0.55;;
19191;SDS011;9728;48.194;16.346;2023-03-14T14:22:26;0.30;;;0.30;;
19191;SDS011;9728;48.194;16.346;2023-03-14T14:27:32;0.35;;;0.35;;
19191;SDS011;9728;48.194;16.346;2023-03-14T14:32:39;0.50;;;0.35;;
19191;SDS011;9728;48.194;16.346;2023-03-14T14:37:44;1.02;;;0.30;;
19191;SDS011;9728;48.194;16.346;2023-03-14T14:42:48;0.60;;;0.40;;
19191;SDS011;9728;48.194;16.346;2023-03-14T14:47:52;0.90;;;0.40;;
19191;SDS011;9728;48.194;16.346;2023-03-14T14:52:59;0.32;;;0.32;;
19191;SDS011;9728;48.194;16.346;2023-03-14T14:58:11;0.68;;;0.50;;
19191;SDS011;9728;48.194;16.346;2023-03-14T15:03:23;0.40;;;0.40;;
19191;SDS011;9728;48.194;16.346;2023-03-14T15:08:31;0.77;;;0.40;;
19191;SDS011;9728;48.194;16.346;2023-03-14T15:13:35;0.73;;;0.60;;
19191;SDS011;9728;48.194;16.346;2023-03-14T15:18:38;0.75;;;0.55;;
19191;SDS011;9728;48.194;16.346;2023-03-14T15:23:43;0.57;;;0.57;;
19191;SDS011;9728;48.194;16.346;2023-03-14T15:28:47;0.90;;;0.60;;
19191;SDS011;9728;48.194;16.346;2023-03-14T15:33:50;2.67;;;0.65;;
19191;SDS011;9728;48.194;16.346;2023-03-14T15:38:55;2.50;;;0.90;;
19191;SDS011;9728;48.194;16.346;2023-03-14T15:44:00;1.05;;;0.82;;
19191;SDS011;9728;48.194;16.346;2023-03-14T15:49:03;1.13;;;0.75;;
19191;SDS011;9728;48.194;16.346;2023-03-14T15:54:08;1.30;;;0.77;;
19191;SDS011;9728;48.194;16.346;2023-03-14T15:59:11;0.70;;;0.70;;
19191;SDS011;9728;48.194;16.346;2023-03-14T16:04:15;2.63;;;1.45;;
19191;SDS011;9728;48.194;16.346;2023-03-14T16:09:20;2.13;;;0.90;;
19191;SDS011;9728;48.194;16.346;2023-03-14T16:14:25;0.98;;;0.80;;
19191;SDS011;9728;48.194;16.346;2023-03-14T16:19:28;2.65;;;1.60;;
19191;SDS011;9728;48.194;16.346;2023-03-14T16:24:34;1.50;;;1.40;;
19191;SDS011;9728;48.194;16.346;2023-03-14T16:29:37;1.92;;;1.38;;
19191;SDS011;9728;48.194;16.346;2023-03-14T16:34:41;3.70;;;1.77;;
19191;SDS011;9728;48.194;16.346;2023-03-14T16:39:47;3.20;;;1.50;;
19191;SDS011;9728;48.194;16.346;2023-03-14T16:45:11;1.83;;;1.45;;
19191;SDS011;9728;48.194;16.346;2023-03-14T16:50:14;2.28;;;1.30;;
19191;SDS011;9728;48.194;16.346;2023-03-14T16:55:19;1.63;;;1.20;;
19191;SDS011;9728;48.194;16.346;2023-03-14T17:00:25;3.42;;;2.35;;
19191;SDS011;9728;48.194;16.346;2023-03-14T17:05:29;3.95;;;2.20;;
19191;SDS011;9728;48.194;16.346;2023-03-14T17:10:35;3.63;;;2.00;;
19191;SDS011;9728;48.194;16.346;2023-03-14T17:15:43;2.80;;;1.60;;
19191;SDS011;9728;48.194;16.346;2023-03-14T17:20:48;1.92;;;1.40;;
19191;SDS011;9728;48.194;16.346;2023-03-14T17:25:54;2.65;;;1.58;;
19191;SDS011;9728;48.194;16.346;2023-03-14T17:31:00;3.88;;;1.55;;
19191;SDS011;9728;48.194;16.346;2023-03-14T17:36:08;4.00;;;2.15;;
19191;SDS011;9728;48.194;16.346;2023-03-14T17:41:16;2.75;;;2.00;;
19191;SDS011;9728;48.194;16.346;2023-03-14T17:46:20;3.67;;;1.95;;
19191;SDS011;9728;48.194;16.346;2023-03-14T17:51:25;7.35;;;3.58;;
19191;SDS011;9728;48.194;16.346;2023-03-14T17:56:33;4.90;;;3.05;;
19191;SDS011;9728;48.194;16.346;2023-03-14T18:01:39;5.95;;;3.53;;
19191;SDS011;9728;48.194;16.346;2023-03-14T18:06:46;5.53;;;2.80;;
19191;SDS011;9728;48.194;16.346;2023-03-14T18:11:53;5.53;;;2.70;;
19191;SDS011;9728;48.194;16.346;2023-03-14T18:17:10;5.18;;;3.22;;
19191;SDS011;9728;48.194;16.346;2023-03-14T18:22:17;6.32;;;3.70;;
19191;SDS011;9728;48.194;16.346;2023-03-14T18:27:24;6.35;;;3.38;;
19191;SDS011;9728;48.194;16.346;2023-03-14T18:32:29;6.95;;;3.20;;
19191;SDS011;9728;48.194;16.346;2023-03-14T18:37:35;3.17;;;2.28;;
19191;SDS011;9728;48.194;16.346;2023-03-14T18:42:42;2.20;;;1.60;;
19191;SDS011;9728;48.194;16.346;2023-03-14T18:47:47;2.03;;;1.13;;
19191;SDS011;9728;48.194;16.346;2023-03-14T18:52:54;0.88;;;0.75;;
19191;SDS011;9728;48.194;16.346;2023-03-14T18:58:01;0.75;;;0.40;;
19191;SDS011;9728;48.194;16.346;2023-03-14T19:03:08;0.45;;;0.30;;
19191;SDS011;9728;48.194;16.346;2023-03-14T19:08:14;0.32;;;0.32;;
19191;SDS011;9728;48.194;16.346;2023-03-14T19:13:20;0.40;;;0.40;;
19191;SDS011;9728;48.194;16.346;2023-03-14T19:18:26;0.45;;;0.45;;
19191;SDS011;9728;48.194;16.346;2023-03-14T19:23:35;0.40;;;0.35;;
19191;SDS011;9728;48.194;16.346;2023-03-14T19:28:54;0.63;;;0.47;;
19191;SDS011;9728;48.194;16.346;2023-03-14T19:34:02;0.50;;;0.50;;
19191;SDS011;9728;48.194;16.346;2023-03-14T19:39:09;0.35;;;0.35;;
19191;SDS011;9728;48.194;16.346;2023-03-14T19:44:17;0.40;;;0.38;;
19191;SDS011;9728;48.194;16.346;2023-03-14T19:49:25;0.38;;;0.38;;
19191;SDS011;9728;48.194;16.346;2023-03-14T19:54:35;0.47;;;0.47;;
19191;SDS011;9728;48.194;16.346;2023-03-14T19:59:48;0.30;;;0.30;;
19191;SDS011;9728;48.194;16.346;2023-03-14T20:04:53;1.75;;;0.55;;
19191;SDS011;9728;48.194;16.346;2023-03-14T20:09:59;0.45;;;0.45;;
19191;SDS011;9728;48.194;16.346;2023-03-14T20:15:14;0.38;;;0.38;;
19191;SDS011;9728;48.194;16.346;2023-03-14T20:20:24;0.75;;;0.52;;
19191;SDS011;9728;48.194;16.346;2023-03-14T20:25:32;0.60;;;0.60;;
19191;SDS011;9728;48.194;16.346;2023-03-14T20:30:47;0.77;;;0.60;;
19191;SDS011;9728;48.194;16.346;2023-03-14T20:35:57;0.60;;;0.40;;
19191;SDS011;9728;48.194;16.346;2023-03-14T20:41:11;0.60;;;0.40;;
19191;SDS011;9728;48.194;16.346;2023-03-14T20:46:21;0.50;;;0.43;;
19191;SDS011;9728;48.194;16.346;2023-03-14T20:51:27;1.02;;;0.70;;
19191;SDS011;9728;48.194;16.346;2023-03-14T20:56:35;0.77;;;0.63;;
19191;SDS011;9728;48.194;16.346;2023-03-14T21:01:42;1.27;;;0.70;;
19191;SDS011;9728;48.194;16.346;2023-03-14T21:07:06;0.60;;;0.60;;
19191;SDS011;9728;48.194;16.346;2023-03-14T21:12:11;0.75;;;0.50;;
19191;SDS011;9728;48.194;16.346;2023-03-14T21:17:19;0.40;;;0.40;;
19191;SDS011;9728;48.194;16.346;2023-03-14T21:22:23;0.55;;;0.55;;
19191;SDS011;9728;48.194;16.346;2023-03-14T21:27:28;0.43;;;0.43;;
19191;SDS011;9728;48.194;16.346;2023-03-14T21:32:34;1.90;;;1.10;;
19191;SDS011;9728;48.194;16.346;2023-03-14T21:37:39;1.13;;;0.50;;
19191;SDS011;9728;48.194;16.346;2023-03-14T21:42:42;0.98;;;0.43;;
19191;SDS011;9728;48.194;16.346;2023-03-14T21:47:47;0.85;;;0.50;;
19191;SDS011;9728;48.194;16.346;2023-03-14T21:52:51;0.70;;;0.43;;
19191;SDS011;9728;48.194;16.346;2023-03-14T21:57:57;0.60;;;0.40;;
19191;SDS011;9728;48.194;16.346;2023-03-14T22:03:04;0.90;;;0.60;;
19191;SDS011;9728;48.194;16.346;2023-03-14T22:08:14;0.85;;;0.45;;
19191;SDS011;9728;48.194;16.346;2023-03-14T22:13:20;1.13;;;0.70;;
19191;SDS011;9728;48.194;16.346;2023-03-14T22:18:27;1.35;;;0.35;;
19191;SDS011;9728;48.194;16.346;2023-03-14T22:23:31;1.48;;;0.43;;
19191;SDS011;9728;48.194;16.346;2023-03-14T22:28:35;0.60;;;0.43;;
19191;SDS011;9728;48.194;16.346;2023-03-14T22:33:40;0.43;;;0.38;;
19191;SDS011;9728;48.194;16.346;2023-03-14T22:38:43;0.90;;;0.43;;
19191;SDS011;9728;48.194;16.346;2023-03-14T22:43:47;1.42;;;0.43;;
19191;SDS011;9728;48.194;16.346;2023-03-14T22:48:52;1.58;;;0.50;;
19191;SDS011;9728;48.194;16.346;2023-03-14T22:53:55;1.60;;;0.63;;
19191;SDS011;9728;48.194;16.346;2023-03-14T22:58:58;0.90;;;0.50;;
19191;SDS011;9728;48.194;16.346;2023-03-14T23:04:04;1.27;;;0.60;;
19191;SDS011;9728;48.194;16.346;2023-03-14T23:09:07;1.40;;;0.50;;
19191;SDS011;9728;48.194;16.346;2023-03-14T23:14:12;0.93;;;0.55;;
19191;SDS011;9728;48.194;16.346;2023-03-14T23:19:17;0.65;;;0.40;;
19191;SDS011;9728;48.194;16.346;2023-03-14T23:24:26;0.47;;;0.40;;
19191;SDS011;9728;48.194;16.346;2023-03-14T23:29:29;1.37;;;0.50;;
19191;SDS011;9728;48.194;16.346;2023-03-14T23:34:34;0.90;;;0.50;;
19191;SDS011;9728;48.194;16.346;2023-03-14T23:39:37;0.98;;;0.70;;
19191;SDS011;9728;48.194;16.346;2023-03-14T23:44:41;1.08;;;0.40;;
19191;SDS011;9728;48.194;16.346;2023-03-14T23:49:46;0.80;;;0.50;;
19191;SDS011;9728;48.194;16.346;2023-03-14T23:54:49;1.42;;;0.70;;
19191;SDS011;9728;48.194;16.346;2023-03-14T23:59:52;0.47;;;0.40;;
